sensor_id;sensor_type;location;lat;lon;timestamp;pressure;altitude;pressure_sealevel;temperature;humidity
10587;BME280;5341;47.606;7.576;2023-03-15T00:01:33;98580.97;;;10.33;58.87
10587;BME280;5341;47.606;7.576;2023-03-15T00:04:00;98579.50;;;10.31;58.18
10587;BME280;5341;47.606;7.576;2023-03-15T00:06:31;98586.19;;;10.26;58.69
10587;BME280;5341;47.606;7.576;2023-03-15T00:08:58;98590.28;;;10.22;58.37
10587;BME280;5341;47.606;7.576;2023-03-15T00:11:28;98592.47;;;10.19;58.52
10587;BME280;5341;47.606;7.576;2023-03-15T00:13:56;98605.81;;;10.19;59.14
10587;BME280;5341;47.606;7.576;2023-03-15T00:16:24;98604.50;;;10.15;58.69
10587;BME280;5341;47.606;7.576;2023-03-15T00:18:54;98617.22;;;10.13;58.84
10587;BME280;5341;47.606;7.576;2023-03-15T00:21:22;98617.03;;;10.14;59.26
10587;BME280;5341;47.606;7.576;2023-03-15T00:23:49;98627.09;;;10.12;58.85
10587;BME280;5341;47.606;7.576;2023-03-15T00:26:17;98625.44;;;10.11;58.11
10587;BME280;5341;47.606;7.576;2023-03-15T00:28:46;98634.81;;;10.07;58.76
10587;BME280;5341;47.606;7.576;2023-03-15T00:31:15;98647.34;;;10.07;58.94
10587;BME280;5341;47.606;7.576;2023-03-15T00:33:44;98643.66;;;10.08;58.42
10587;BME280;5341;47.606;7.576;2023-03-15T00:36:12;98646.16;;;10.09;58.76
10587;BME280;5341;47.606;7.576;2023-03-15T00:38:40;98644.31;;;10.10;58.88
10587;BME280;5341;47.606;7.576;2023-03-15T00:41:10;98659.16;;;10.12;58.92
10587;BME280;5341;47.606;7.576;2023-03-15T00:43:39;98662.66;;;10.13;58.47
10587;BME280;5341;47.606;7.576;2023-03-15T00:46:08;98662.66;;;10.13;58.47
10587;BME280;5341;47.606;7.576;2023-03-15T00:48:39;98657.31;;;10.13;58.66
10587;BME280;5341;47.606;7.576;2023-03-15T00:51:15;98671.50;;;10.13;58.86
10587;BME280;5341;47.606;7.576;2023-03-15T00:53:44;98679.50;;;10.13;59.02
10587;BME280;5341;47.606;7.576;2023-03-15T00:56:26;98677.03;;;10.12;58.38
10587;BME280;5341;47.606;7.576;2023-03-15T00:58:57;98686.06;;;10.11;58.58
10587;BME280;5341;47.606;7.576;2023-03-15T01:01:27;98696.91;;;10.09;58.68
10587;BME280;5341;47.606;7.576;2023-03-15T01:03:55;98699.47;;;10.03;58.45
10587;BME280;5341;47.606;7.576;2023-03-15T01:06:25;98703.97;;;10.02;58.75
10587;BME280;5341;47.606;7.576;2023-03-15T01:08:53;98712.81;;;10.03;59.05
10587;BME280;5341;47.606;7.576;2023-03-15T01:11:23;98707.47;;;10.03;58.75
10587;BME280;5341;47.606;7.576;2023-03-15T01:13:52;98719.84;;;10.04;58.92
10587;BME280;5341;47.606;7.576;2023-03-15T01:16:20;98724.16;;;10.05;58.69
10587;BME280;5341;47.606;7.576;2023-03-15T01:18:53;98724.00;;;10.06;58.77
10587;BME280;5341;47.606;7.576;2023-03-15T01:21:22;98723.81;;;10.08;58.91
10587;BME280;5341;47.606;7.576;2023-03-15T01:23:49;98733.50;;;10.09;58.47
10587;BME280;5341;47.606;7.576;2023-03-15T01:26:20;98731.66;;;10.09;58.13
10587;BME280;5341;47.606;7.576;2023-03-15T01:28:48;98734.31;;;10.09;58.74
10587;BME280;5341;47.606;7.576;2023-03-15T01:31:18;98737.00;;;10.09;58.23
10587;BME280;5341;47.606;7.576;2023-03-15T01:33:47;98737.19;;;10.08;58.19
10587;BME280;5341;47.606;7.576;2023-03-15T01:36:14;98738.19;;;10.07;58.46
10587;BME280;5341;47.606;7.576;2023-03-15T01:38:42;98746.22;;;10.07;58.20
10587;BME280;5341;47.606;7.576;2023-03-15T01:41:10;98744.69;;;10.04;58.23
10587;BME280;5341;47.606;7.576;2023-03-15T01:43:39;98746.72;;;10.02;58.02
10587;BME280;5341;47.606;7.576;2023-03-15T01:46:18;98747.75;;;10.01;58.41
10587;BME280;5341;47.606;7.576;2023-03-15T01:48:54;98750.59;;;9.99;58.69
10587;BME280;5341;47.606;7.576;2023-03-15T01:51:32;98746.81;;;9.94;58.06
10587;BME280;5341;47.606;7.576;2023-03-15T01:54:05;98752.50;;;9.91;58.02
10587;BME280;5341;47.606;7.576;2023-03-15T01:56:36;98755.34;;;9.89;58.24
10587;BME280;5341;47.606;7.576;2023-03-15T01:59:10;98760.88;;;9.88;58.28
10587;BME280;5341;47.606;7.576;2023-03-15T02:01:41;98754.88;;;9.86;57.89
10587;BME280;5341;47.606;7.576;2023-03-15T02:04:20;98764.91;;;9.84;58.23
10587;BME280;5341;47.606;7.576;2023-03-15T02:06:51;98755.41;;;9.81;58.50
10587;BME280;5341;47.606;7.576;2023-03-15T02:09:31;98760.09;;;9.79;58.15
10587;BME280;5341;47.606;7.576;2023-03-15T02:12:03;98767.44;;;9.77;58.07
10587;BME280;5341;47.606;7.576;2023-03-15T02:14:32;98773.78;;;9.76;58.27
10587;BME280;5341;47.606;7.576;2023-03-15T02:17:01;98764.97;;;9.76;58.04
10587;BME280;5341;47.606;7.576;2023-03-15T02:19:38;98770.28;;;9.76;57.95
10587;BME280;5341;47.606;7.576;2023-03-15T02:22:20;98772.97;;;9.76;58.24
10587;BME280;5341;47.606;7.576;2023-03-15T02:24:55;98766.78;;;9.75;57.69
10587;BME280;5341;47.606;7.576;2023-03-15T02:27:28;98770.28;;;9.76;58.10
10587;BME280;5341;47.606;7.576;2023-03-15T02:29:57;98772.31;;;9.74;58.18
10587;BME280;5341;47.606;7.576;2023-03-15T02:32:31;98777.00;;;9.72;57.67
10587;BME280;5341;47.606;7.576;2023-03-15T02:35:00;98781.84;;;9.68;58.03
10587;BME280;5341;47.606;7.576;2023-03-15T02:37:31;98786.34;;;9.67;57.98
10587;BME280;5341;47.606;7.576;2023-03-15T02:39:58;98783.88;;;9.66;57.84
10587;BME280;5341;47.606;7.576;2023-03-15T02:42:27;98784.88;;;9.65;57.58
10587;BME280;5341;47.606;7.576;2023-03-15T02:44:57;98791.22;;;9.64;57.75
10587;BME280;5341;47.606;7.576;2023-03-15T02:47:27;98781.56;;;9.63;57.76
10587;BME280;5341;47.606;7.576;2023-03-15T02:49:58;98792.22;;;9.63;57.78
10587;BME280;5341;47.606;7.576;2023-03-15T02:52:28;98793.25;;;9.62;57.82
10587;BME280;5341;47.606;7.576;2023-03-15T02:54:55;98788.09;;;9.60;58.13
10587;BME280;5341;47.606;7.576;2023-03-15T02:57:22;98795.44;;;9.58;57.92
10587;BME280;5341;47.606;7.576;2023-03-15T03:00:07;98799.94;;;9.58;57.96
10587;BME280;5341;47.606;7.576;2023-03-15T03:02:44;98804.59;;;9.56;57.59
10587;BME280;5341;47.606;7.576;2023-03-15T03:05:14;98808.28;;;9.55;57.87
10587;BME280;5341;47.606;7.576;2023-03-15T03:07:42;98809.28;;;9.54;58.01
10587;BME280;5341;47.606;7.576;2023-03-15T03:10:12;98813.63;;;9.55;58.02
10587;BME280;5341;47.606;7.576;2023-03-15T03:12:48;98813.81;;;9.53;57.67
10587;BME280;5341;47.606;7.576;2023-03-15T03:15:23;98810.31;;;9.53;57.72
10587;BME280;5341;47.606;7.576;2023-03-15T03:17:51;98816.66;;;9.52;57.74
10587;BME280;5341;47.606;7.576;2023-03-15T03:20:20;98819.50;;;9.50;57.48
10587;BME280;5341;47.606;7.576;2023-03-15T03:22:48;98826.84;;;9.48;57.52
10587;BME280;5341;47.606;7.576;2023-03-15T03:25:18;98824.34;;;9.47;57.79
10587;BME280;5341;47.606;7.576;2023-03-15T03:27:47;98826.19;;;9.46;57.32
10587;BME280;5341;47.606;7.576;2023-03-15T03:30:15;98831.53;;;9.46;57.45
10587;BME280;5341;47.606;7.576;2023-03-15T03:32:49;98833.38;;;9.46;57.37
10587;BME280;5341;47.606;7.576;2023-03-15T03:35:17;98839.69;;;9.45;57.60
10587;BME280;5341;47.606;7.576;2023-03-15T03:37:44;98843.38;;;9.44;57.43
10587;BME280;5341;47.606;7.576;2023-03-15T03:40:16;98841.72;;;9.43;57.48
10587;BME280;5341;47.606;7.576;2023-03-15T03:42:44;98849.88;;;9.41;57.79
10587;BME280;5341;47.606;7.576;2023-03-15T03:45:12;98849.22;;;9.39;57.17
10587;BME280;5341;47.606;7.576;2023-03-15T03:47:46;98852.06;;;9.37;57.19
10587;BME280;5341;47.606;7.576;2023-03-15T03:50:18;98854.94;;;9.36;56.88
10587;BME280;5341;47.606;7.576;2023-03-15T03:52:46;98863.09;;;9.34;57.39
10587;BME280;5341;47.606;7.576;2023-03-15T03:55:20;98862.41;;;9.32;57.37
10587;BME280;5341;47.606;7.576;2023-03-15T03:57:53;98866.09;;;9.31;57.42
10587;BME280;5341;47.606;7.576;2023-03-15T04:00:39;98861.94;;;9.29;57.00
10587;BME280;5341;47.606;7.576;2023-03-15T04:03:08;98863.78;;;9.28;57.42
10587;BME280;5341;47.606;7.576;2023-03-15T04:05:39;98864.97;;;9.26;57.20
10587;BME280;5341;47.606;7.576;2023-03-15T04:08:07;98863.47;;;9.23;57.25
10587;BME280;5341;47.606;7.576;2023-03-15T04:10:37;98866.31;;;9.22;57.18
10587;BME280;5341;47.606;7.576;2023-03-15T04:13:05;98875.31;;;9.21;57.04
10587;BME280;5341;47.606;7.576;2023-03-15T04:15:33;98870.13;;;9.19;57.22
10587;BME280;5341;47.606;7.576;2023-03-15T04:18:00;98885.31;;;9.19;56.96
10587;BME280;5341;47.606;7.576;2023-03-15T04:20:35;98879.31;;;9.17;57.08
10587;BME280;5341;47.606;7.576;2023-03-15T04:23:04;98885.66;;;9.16;57.20
10587;BME280;5341;47.606;7.576;2023-03-15T04:25:58;98888.50;;;9.14;57.17
10587;BME280;5341;47.606;7.576;2023-03-15T04:28:55;98887.00;;;9.12;57.16
10587;BME280;5341;47.606;7.576;2023-03-15T04:31:38;98891.69;;;9.09;57.02
10587;BME280;5341;47.606;7.576;2023-03-15T04:34:19;98891.00;;;9.07;56.87
10587;BME280;5341;47.606;7.576;2023-03-15T04:37:09;98890.34;;;9.05;56.74
10587;BME280;5341;47.606;7.576;2023-03-15T04:40:01;98895.00;;;9.03;56.97
10587;BME280;5341;47.606;7.576;2023-03-15T04:43:02;98890.84;;;9.01;57.08
10587;BME280;5341;47.606;7.576;2023-03-15T04:45:39;98894.53;;;9.00;56.96
10587;BME280;5341;47.606;7.576;2023-03-15T04:48:31;98898.19;;;8.99;56.90
10587;BME280;5341;47.606;7.576;2023-03-15T04:51:19;98898.38;;;8.97;56.73
10587;BME280;5341;47.606;7.576;2023-03-15T04:54:00;98902.88;;;8.97;57.03
10587;BME280;5341;47.606;7.576;2023-03-15T04:56:58;98902.88;;;8.97;56.70
10587;BME280;5341;47.606;7.576;2023-03-15T05:00:01;98903.03;;;8.95;56.83
10587;BME280;5341;47.606;7.576;2023-03-15T05:02:30;98905.69;;;8.95;56.61
10587;BME280;5341;47.606;7.576;2023-03-15T05:05:08;98910.19;;;8.95;56.61
10587;BME280;5341;47.606;7.576;2023-03-15T05:07:52;98910.19;;;8.95;56.80
10587;BME280;5341;47.606;7.576;2023-03-15T05:10:55;98914.69;;;8.94;56.86
10587;BME280;5341;47.606;7.576;2023-03-15T05:13:29;98915.53;;;8.95;56.43
10587;BME280;5341;47.606;7.576;2023-03-15T05:16:15;98921.84;;;8.94;56.95
10587;BME280;5341;47.606;7.576;2023-03-15T05:18:55;98915.69;;;8.93;56.43
10587;BME280;5341;47.606;7.576;2023-03-15T05:21:44;98921.19;;;8.92;56.79
10587;BME280;5341;47.606;7.576;2023-03-15T05:24:40;98930.19;;;8.91;56.36
10587;BME280;5341;47.606;7.576;2023-03-15T05:27:29;98937.53;;;8.89;55.93
10587;BME280;5341;47.606;7.576;2023-03-15T05:30:15;98936.06;;;8.86;56.32
10587;BME280;5341;47.606;7.576;2023-03-15T05:33:01;98939.84;;;8.84;56.05
10587;BME280;5341;47.606;7.576;2023-03-15T05:35:35;98948.03;;;8.82;56.42
10587;BME280;5341;47.606;7.576;2023-03-15T05:38:26;98948.19;;;8.80;56.24
10587;BME280;5341;47.606;7.576;2023-03-15T05:40:59;98949.19;;;8.79;56.37
10587;BME280;5341;47.606;7.576;2023-03-15T05:43:45;98947.72;;;8.77;56.36
10587;BME280;5341;47.606;7.576;2023-03-15T05:46:34;98949.72;;;8.75;55.97
10587;BME280;5341;47.606;7.576;2023-03-15T05:49:25;98958.03;;;8.72;56.14
10587;BME280;5341;47.606;7.576;2023-03-15T05:52:05;98960.69;;;8.72;56.44
10587;BME280;5341;47.606;7.576;2023-03-15T05:54:51;98958.19;;;8.70;56.19
10587;BME280;5341;47.606;7.576;2023-03-15T05:57:39;98960.19;;;8.68;55.96
10587;BME280;5341;47.606;7.576;2023-03-15T06:00:19;98955.03;;;8.67;56.34
10587;BME280;5341;47.606;7.576;2023-03-15T06:02:54;98958.69;;;8.66;56.36
10587;BME280;5341;47.606;7.576;2023-03-15T06:05:52;98973.03;;;8.65;56.02
10587;BME280;5341;47.606;7.576;2023-03-15T06:08:28;98974.03;;;8.64;56.03
10587;BME280;5341;47.606;7.576;2023-03-15T06:10:56;98970.53;;;8.63;56.10
10587;BME280;5341;47.606;7.576;2023-03-15T06:13:24;98982.19;;;8.62;56.02
10587;BME280;5341;47.606;7.576;2023-03-15T06:15:53;98979.53;;;8.62;55.87
10587;BME280;5341;47.606;7.576;2023-03-15T06:18:21;98983.03;;;8.63;55.80
10587;BME280;5341;47.606;7.576;2023-03-15T06:20:50;98989.34;;;8.62;56.21
10587;BME280;5341;47.606;7.576;2023-03-15T06:23:22;98992.03;;;8.62;55.93
10587;BME280;5341;47.606;7.576;2023-03-15T06:25:51;98990.34;;;8.61;55.90
10587;BME280;5341;47.606;7.576;2023-03-15T06:28:20;98992.19;;;8.60;55.99
10587;BME280;5341;47.606;7.576;2023-03-15T06:30:53;98996.53;;;8.61;55.98
10587;BME280;5341;47.606;7.576;2023-03-15T06:33:27;98999.19;;;8.61;55.97
10587;BME280;5341;47.606;7.576;2023-03-15T06:35:56;99001.03;;;8.61;55.83
10587;BME280;5341;47.606;7.576;2023-03-15T06:38:24;99003.69;;;8.61;55.72
10587;BME280;5341;47.606;7.576;2023-03-15T06:40:54;99006.19;;;8.62;55.96
10587;BME280;5341;47.606;7.576;2023-03-15T06:43:26;99008.84;;;8.62;55.82
10587;BME280;5341;47.606;7.576;2023-03-15T06:45:53;99004.19;;;8.64;55.76
10587;BME280;5341;47.606;7.576;2023-03-15T06:48:23;99009.50;;;8.64;55.82
10587;BME280;5341;47.606;7.576;2023-03-15T06:50:53;99001.50;;;8.64;56.03
10587;BME280;5341;47.606;7.576;2023-03-15T06:53:22;99002.34;;;8.65;56.15
10587;BME280;5341;47.606;7.576;2023-03-15T06:55:50;99009.34;;;8.66;55.72
10587;BME280;5341;47.606;7.576;2023-03-15T06:58:18;99019.84;;;8.67;56.00
10587;BME280;5341;47.606;7.576;2023-03-15T07:00:48;99023.19;;;8.69;56.30
10587;BME280;5341;47.606;7.576;2023-03-15T07:03:15;99024.84;;;8.70;56.10
10587;BME280;5341;47.606;7.576;2023-03-15T07:05:44;99026.66;;;8.70;56.19
10587;BME280;5341;47.606;7.576;2023-03-15T07:08:13;99033.53;;;8.72;56.39
10587;BME280;5341;47.606;7.576;2023-03-15T07:10:41;99030.69;;;8.74;56.22
10587;BME280;5341;47.606;7.576;2023-03-15T07:13:09;99035.03;;;8.75;56.27
10587;BME280;5341;47.606;7.576;2023-03-15T07:15:36;99035.69;;;8.77;55.92
10587;BME280;5341;47.606;7.576;2023-03-15T07:18:05;99036.38;;;8.79;56.27
10587;BME280;5341;47.606;7.576;2023-03-15T07:20:32;99036.03;;;8.82;56.41
10587;BME280;5341;47.606;7.576;2023-03-15T07:23:00;99037.56;;;8.85;56.32
10587;BME280;5341;47.606;7.576;2023-03-15T07:25:30;99032.72;;;8.88;56.53
10587;BME280;5341;47.606;7.576;2023-03-15T07:27:57;99040.38;;;8.91;56.33
10587;BME280;5341;47.606;7.576;2023-03-15T07:30:24;99036.53;;;8.94;56.14
10587;BME280;5341;47.606;7.576;2023-03-15T07:32:53;99041.56;;;8.97;56.21
10587;BME280;5341;47.606;7.576;2023-03-15T07:35:24;99041.25;;;9.00;55.98
10587;BME280;5341;47.606;7.576;2023-03-15T07:37:51;99039.06;;;9.03;56.06
10587;BME280;5341;47.606;7.576;2023-03-15T07:40:19;99038.72;;;9.06;56.30
10587;BME280;5341;47.606;7.576;2023-03-15T07:42:47;99046.25;;;9.11;56.12
10587;BME280;5341;47.606;7.576;2023-03-15T07:45:15;99046.75;;;9.15;55.96
10587;BME280;5341;47.606;7.576;2023-03-15T07:47:42;99050.72;;;9.19;55.85
10587;BME280;5341;47.606;7.576;2023-03-15T07:50:10;99053.09;;;9.22;55.86
10587;BME280;5341;47.606;7.576;2023-03-15T07:52:38;99049.09;;;9.26;55.64
10587;BME280;5341;47.606;7.576;2023-03-15T07:55:06;99049.41;;;9.31;55.66
10587;BME280;5341;47.606;7.576;2023-03-15T07:57:37;99046.09;;;9.37;55.81
10587;BME280;5341;47.606;7.576;2023-03-15T08:00:07;99044.56;;;9.43;55.66
10587;BME280;5341;47.606;7.576;2023-03-15T08:02:40;99045.91;;;9.47;55.46
10587;BME280;5341;47.606;7.576;2023-03-15T08:05:08;99043.38;;;9.53;55.58
10587;BME280;5341;47.606;7.576;2023-03-15T08:07:38;99052.41;;;9.60;55.46
10587;BME280;5341;47.606;7.576;2023-03-15T08:10:09;99053.56;;;9.66;55.48
10587;BME280;5341;47.606;7.576;2023-03-15T08:12:37;99056.22;;;9.74;55.43
10587;BME280;5341;47.606;7.576;2023-03-15T08:15:12;99060.88;;;9.80;55.61
10587;BME280;5341;47.606;7.576;2023-03-15T08:17:40;99067.22;;;9.87;55.32
10587;BME280;5341;47.606;7.576;2023-03-15T08:20:09;99061.84;;;9.95;55.13
10587;BME280;5341;47.606;7.576;2023-03-15T08:22:40;99065.19;;;10.06;55.64
10587;BME280;5341;47.606;7.576;2023-03-15T08:25:10;99063.66;;;10.11;55.43
10587;BME280;5341;47.606;7.576;2023-03-15T08:27:40;99062.63;;;10.20;55.53
10587;BME280;5341;47.606;7.576;2023-03-15T08:30:11;99066.09;;;10.29;55.57
10587;BME280;5341;47.606;7.576;2023-03-15T08:32:39;99066.09;;;10.37;55.14
10587;BME280;5341;47.606;7.576;2023-03-15T08:35:08;99065.22;;;10.45;55.06
10587;BME280;5341;47.606;7.576;2023-03-15T08:37:38;99067.84;;;10.53;55.12
10587;BME280;5341;47.606;7.576;2023-03-15T08:40:07;99069.47;;;10.62;55.38
10587;BME280;5341;47.606;7.576;2023-03-15T08:42:35;99063.25;;;10.70;54.91
10587;BME280;5341;47.606;7.576;2023-03-15T08:45:03;99062.53;;;10.76;55.23
10587;BME280;5341;47.606;7.576;2023-03-15T08:47:33;99069.69;;;10.83;54.63
10587;BME280;5341;47.606;7.576;2023-03-15T08:50:01;99065.66;;;10.88;54.51
10587;BME280;5341;47.606;7.576;2023-03-15T08:52:31;99063.47;;;10.91;54.03
10587;BME280;5341;47.606;7.576;2023-03-15T08:54:59;99066.63;;;10.95;53.49
10587;BME280;5341;47.606;7.576;2023-03-15T08:57:27;99062.06;;;11.03;53.48
10587;BME280;5341;47.606;7.576;2023-03-15T08:59:55;99068.34;;;11.10;54.06
10587;BME280;5341;47.606;7.576;2023-03-15T09:02:22;99075.88;;;11.15;53.97
10587;BME280;5341;47.606;7.576;2023-03-15T09:04:51;99075.78;;;11.23;54.29
10587;BME280;5341;47.606;7.576;2023-03-15T09:07:18;99081.75;;;11.33;54.12
10587;BME280;5341;47.606;7.576;2023-03-15T09:09:46;99084.84;;;11.45;53.62
10587;BME280;5341;47.606;7.576;2023-03-15T09:12:14;99089.56;;;11.58;54.39
10587;BME280;5341;47.606;7.576;2023-03-15T09:14:42;99087.66;;;11.66;54.14
10587;BME280;5341;47.606;7.576;2023-03-15T09:17:10;99089.09;;;11.77;53.88
10587;BME280;5341;47.606;7.576;2023-03-15T09:19:37;99091.50;;;11.87;54.62
10587;BME280;5341;47.606;7.576;2023-03-15T09:22:06;99098.00;;;11.92;54.30
10587;BME280;5341;47.606;7.576;2023-03-15T09:24:33;99094.13;;;11.95;54.28
10587;BME280;5341;47.606;7.576;2023-03-15T09:27:01;99098.28;;;11.97;54.25
10587;BME280;5341;47.606;7.576;2023-03-15T09:29:28;99096.28;;;11.99;53.10
10587;BME280;5341;47.606;7.576;2023-03-15T09:31:56;99100.88;;;12.06;53.22
10587;BME280;5341;47.606;7.576;2023-03-15T09:34:24;99095.44;;;12.14;52.12
10587;BME280;5341;47.606;7.576;2023-03-15T09:36:52;99101.38;;;12.24;51.35
10587;BME280;5341;47.606;7.576;2023-03-15T09:39:21;99092.00;;;12.35;51.17
10587;BME280;5341;47.606;7.576;2023-03-15T09:41:51;99098.31;;;12.42;51.32
10587;BME280;5341;47.606;7.576;2023-03-15T09:44:31;99102.19;;;12.54;52.08
10587;BME280;5341;47.606;7.576;2023-03-15T09:47:08;99105.41;;;12.64;51.07
10587;BME280;5341;47.606;7.576;2023-03-15T09:49:44;99103.00;;;12.69;51.30
10587;BME280;5341;47.606;7.576;2023-03-15T09:52:24;99106.78;;;12.75;51.59
10587;BME280;5341;47.606;7.576;2023-03-15T09:54:57;99100.41;;;12.76;51.48
10587;BME280;5341;47.606;7.576;2023-03-15T09:57:34;99107.00;;;12.73;51.66
10587;BME280;5341;47.606;7.576;2023-03-15T10:00:04;99101.72;;;12.65;51.49
10587;BME280;5341;47.606;7.576;2023-03-15T10:02:38;99099.97;;;12.57;51.93
10587;BME280;5341;47.606;7.576;2023-03-15T10:05:11;99100.97;;;12.56;51.57
10587;BME280;5341;47.606;7.576;2023-03-15T10:07:43;99107.09;;;12.50;51.81
10587;BME280;5341;47.606;7.576;2023-03-15T10:10:17;99093.31;;;12.53;52.40
10587;BME280;5341;47.606;7.576;2023-03-15T10:12:50;99096.81;;;12.69;51.49
10587;BME280;5341;47.606;7.576;2023-03-15T10:15:35;99099.09;;;12.86;50.70
10587;BME280;5341;47.606;7.576;2023-03-15T10:18:21;99092.28;;;13.05;50.52
10587;BME280;5341;47.606;7.576;2023-03-15T10:20:58;99088.72;;;13.19;51.04
10587;BME280;5341;47.606;7.576;2023-03-15T10:23:35;99081.19;;;13.30;51.02
10587;BME280;5341;47.606;7.576;2023-03-15T10:26:10;99079.97;;;13.32;50.44
10587;BME280;5341;47.606;7.576;2023-03-15T10:28:39;99089.91;;;13.17;49.59
10587;BME280;5341;47.606;7.576;2023-03-15T10:31:13;99078.00;;;13.05;49.20
10587;BME280;5341;47.606;7.576;2023-03-15T10:33:42;99085.63;;;13.01;49.27
10587;BME280;5341;47.606;7.576;2023-03-15T10:36:14;99082.31;;;12.99;49.17
10587;BME280;5341;47.606;7.576;2023-03-15T10:38:43;99079.53;;;12.93;49.56
10587;BME280;5341;47.606;7.576;2023-03-15T10:41:13;99077.69;;;12.93;49.44
10587;BME280;5341;47.606;7.576;2023-03-15T10:43:56;99071.88;;;12.89;48.43
10587;BME280;5341;47.606;7.576;2023-03-15T10:46:24;99076.97;;;12.84;48.66
10587;BME280;5341;47.606;7.576;2023-03-15T10:48:55;99061.44;;;12.80;47.97
10587;BME280;5341;47.606;7.576;2023-03-15T10:51:25;99067.56;;;12.74;49.34
10587;BME280;5341;47.606;7.576;2023-03-15T10:53:55;99073.13;;;12.72;48.19
10587;BME280;5341;47.606;7.576;2023-03-15T10:56:25;99067.28;;;12.69;48.01
10587;BME280;5341;47.606;7.576;2023-03-15T10:58:55;99072.66;;;12.69;47.65
10587;BME280;5341;47.606;7.576;2023-03-15T11:01:24;99064.06;;;12.73;48.89
10587;BME280;5341;47.606;7.576;2023-03-15T11:04:14;99077.63;;;12.86;48.85
10587;BME280;5341;47.606;7.576;2023-03-15T11:06:44;99070.09;;;12.97;48.36
10587;BME280;5341;47.606;7.576;2023-03-15T11:09:13;99068.53;;;12.87;45.77
10587;BME280;5341;47.606;7.576;2023-03-15T11:11:54;99065.13;;;12.79;46.04
10587;BME280;5341;47.606;7.576;2023-03-15T11:14:24;99067.53;;;12.88;46.82
10587;BME280;5341;47.606;7.576;2023-03-15T11:16:54;99065.19;;;13.00;46.01
10587;BME280;5341;47.606;7.576;2023-03-15T11:19:25;99066.34;;;13.12;46.98
10587;BME280;5341;47.606;7.576;2023-03-15T11:21:54;99061.75;;;13.28;45.49
10587;BME280;5341;47.606;7.576;2023-03-15T11:24:24;99064.25;;;13.29;44.97
10587;BME280;5341;47.606;7.576;2023-03-15T11:26:56;99058.31;;;13.34;44.30
10587;BME280;5341;47.606;7.576;2023-03-15T11:29:28;99066.09;;;13.29;43.05
10587;BME280;5341;47.606;7.576;2023-03-15T11:31:57;99059.72;;;13.30;43.55
10587;BME280;5341;47.606;7.576;2023-03-15T11:34:35;99059.78;;;13.36;43.94
10587;BME280;5341;47.606;7.576;2023-03-15T11:37:13;99047.38;;;13.35;43.30
10587;BME280;5341;47.606;7.576;2023-03-15T11:39:45;99040.16;;;13.36;43.02
10587;BME280;5341;47.606;7.576;2023-03-15T11:42:20;99039.88;;;13.52;44.09
10587;BME280;5341;47.606;7.576;2023-03-15T11:44:52;99048.09;;;13.72;43.10
10587;BME280;5341;47.606;7.576;2023-03-15T11:47:34;99043.03;;;13.90;42.28
10587;BME280;5341;47.606;7.576;2023-03-15T11:50:04;99044.31;;;13.94;41.50
10587;BME280;5341;47.606;7.576;2023-03-15T11:52:31;99034.59;;;13.93;42.07
10587;BME280;5341;47.606;7.576;2023-03-15T11:55:00;99043.94;;;13.97;43.58
10587;BME280;5341;47.606;7.576;2023-03-15T11:57:41;99032.16;;;14.05;41.78
10587;BME280;5341;47.606;7.576;2023-03-15T12:00:19;99034.13;;;14.18;43.60
10587;BME280;5341;47.606;7.576;2023-03-15T12:02:53;99033.38;;;14.30;43.42
10587;BME280;5341;47.606;7.576;2023-03-15T12:05:40;99036.97;;;14.44;41.31
10587;BME280;5341;47.606;7.576;2023-03-15T12:08:22;99042.81;;;14.54;40.32
10587;BME280;5341;47.606;7.576;2023-03-15T12:10:51;99045.94;;;14.64;41.52
10587;BME280;5341;47.606;7.576;2023-03-15T12:13:28;99039.16;;;14.75;40.76
10587;BME280;5341;47.606;7.576;2023-03-15T12:15:55;99042.31;;;14.92;40.66
10587;BME280;5341;47.606;7.576;2023-03-15T12:18:32;99027.84;;;15.06;39.75
10587;BME280;5341;47.606;7.576;2023-03-15T12:21:07;99030.97;;;15.03;40.66
10587;BME280;5341;47.606;7.576;2023-03-15T12:23:41;99034.25;;;14.92;40.20
10587;BME280;5341;47.606;7.576;2023-03-15T12:26:15;99030.50;;;14.86;39.89
10587;BME280;5341;47.606;7.576;2023-03-15T12:28:52;99026.34;;;14.84;38.93
10587;BME280;5341;47.606;7.576;2023-03-15T12:31:43;99027.38;;;14.83;39.01
10587;BME280;5341;47.606;7.576;2023-03-15T12:34:14;99030.50;;;14.86;38.94
10587;BME280;5341;47.606;7.576;2023-03-15T12:36:51;99030.31;;;14.94;39.89
10587;BME280;5341;47.606;7.576;2023-03-15T12:39:21;99025.75;;;15.02;39.81
10587;BME280;5341;47.606;7.576;2023-03-15T12:42:02;99025.78;;;15.08;40.14
10587;BME280;5341;47.606;7.576;2023-03-15T12:44:39;99029.31;;;15.15;40.04
10587;BME280;5341;47.606;7.576;2023-03-15T12:47:07;99017.09;;;15.19;39.58
10587;BME280;5341;47.606;7.576;2023-03-15T12:49:38;99014.38;;;15.26;39.29
10587;BME280;5341;47.606;7.576;2023-03-15T12:52:24;99017.72;;;15.35;37.98
10587;BME280;5341;47.606;7.576;2023-03-15T12:54:59;99008.19;;;15.32;37.60
10587;BME280;5341;47.606;7.576;2023-03-15T12:57:28;99010.06;;;15.32;37.32
10587;BME280;5341;47.606;7.576;2023-03-15T13:00:00;99008.81;;;15.34;37.28
10587;BME280;5341;47.606;7.576;2023-03-15T13:02:32;98997.22;;;15.40;37.14
10587;BME280;5341;47.606;7.576;2023-03-15T13:05:08;99007.97;;;15.47;37.36
10587;BME280;5341;47.606;7.576;2023-03-15T13:07:49;99000.09;;;15.59;37.37
10587;BME280;5341;47.606;7.576;2023-03-15T13:10:29;99000.31;;;15.57;36.28
10587;BME280;5341;47.606;7.576;2023-03-15T13:13:07;98998.03;;;15.47;36.49
10587;BME280;5341;47.606;7.576;2023-03-15T13:15:43;99002.19;;;15.43;36.86
10587;BME280;5341;47.606;7.576;2023-03-15T13:18:16;98997.63;;;15.44;36.86
10587;BME280;5341;47.606;7.576;2023-03-15T13:21:04;98996.78;;;15.50;37.43
10587;BME280;5341;47.606;7.576;2023-03-15T13:23:36;98988.06;;;15.48;38.04
10587;BME280;5341;47.606;7.576;2023-03-15T13:26:24;98983.28;;;15.50;37.62
10587;BME280;5341;47.606;7.576;2023-03-15T13:28:58;98988.91;;;15.48;38.10
10587;BME280;5341;47.606;7.576;2023-03-15T13:31:28;98985.59;;;15.46;37.63
10587;BME280;5341;47.606;7.576;2023-03-15T13:33:57;98981.84;;;15.47;36.57
10587;BME280;5341;47.606;7.576;2023-03-15T13:36:39;98983.28;;;15.50;36.95
10587;BME280;5341;47.606;7.576;2023-03-15T13:39:14;98979.38;;;15.52;36.71
10587;BME280;5341;47.606;7.576;2023-03-15T13:41:42;98977.91;;;15.57;36.80
10587;BME280;5341;47.606;7.576;2023-03-15T13:44:16;98977.94;;;15.70;36.27
10587;BME280;5341;47.606;7.576;2023-03-15T13:46:46;98975.03;;;15.78;36.11